Tiempo atmosférico en la estación meteorológica de Mollerussa, Lleida (250 m.)



Fecha
DESCASC
Temp. máxima en grados centígrados (hora)
DESCASC
Temp. mínima en grados centígrados (hora)
DESCASC
Temp. media en grados centígrados
DESCASC
Racha de viento máxima en m/sg (hora)
DESCASC
Velocidad máxima media en intervalos de 10 minutos(hora)
DESCASC
Precipitaciones diarias en mm
DESCASC
Precipitaciones de 00:00 a 06:00 en mm
DESCASC
Precipitaciones de 06:00 a 12:00 en mm
DESCASC
Precipitaciones de 12:00 a 18:00 en mm
DESCASC
Precipitaciones de 18:00 a 24:00 en mm
DESCASC
22-01-2020 10.2 (12:40) 5.8 (06:30) 8 11.94 (18:40) 5.56 (18:40) 33.2 3.2 0 5.4 24.6
21-01-2020 10.7 (21:00) 6.4 (23:30) 8.5 21.39 (12:00) 12.22 (02:40) 20.8 0.2 3 0 17.6
20-01-2020 9.4 (16:00) 2 (07:50) 5.7 12.78 (21:10) 7.22 (17:10) 0 0 0 0 0
19-01-2020 9.3 (16:20) 3.5 (00:00) 6.4 5.83 (01:00) 3.89 (01:40) 4.2 4 0.2 0 0
18-01-2020 11.6 (15:20) 1.5 (00:00) 6.6 6.39 (00:50) 3.61 (01:40) 1.4 0 0 0 1.4
17-01-2020 14.3 (15:20) 1.2 (00:00) 7.8 12.22 (16:10) 6.39 (16:30) 0 0 0 0 0
16-01-2020 10.5 (15:40) -2.8 (-00:0) 3.9 2.5 (09:50) 1.67 (21:10) 0 0 0 0 0
15-01-2020 2.4 (15:50) -1.1 (-00:0) 0.7 3.33 (15:50) 1.67 (15:50) 0 0 0 0 0
14-01-2020 4.6 (16:00) -1.4 (-00:0) 1.6 2.78 (09:30) 1.67 (09:10) 0 0 0 0 0
13-01-2020 1.4 (16:40) -2 (-00:0) -0.3 3.06 (18:00) 1.67 (02:00) 0 0 0 0 0
12-01-2020 2.1 (16:00) -3.2 (-00:0) -0.6 2.78 (20:40) 1.67 (20:40) 0 0 0 0 0
11-01-2020 8.6 (16:00) -0.5 (-00:0) 4.1 5 (12:30) 2.5 (10:50) 0 0 0 0 0
10-01-2020 6.9 (15:10) 1.9 (00:00) 4.4 5.28 (04:20) 3.33 (04:20) 0.2 0.2 0 0 0
09-01-2020 3.9 (17:00) 1.2 (00:00) 2.6 5 (19:30) 3.33 (19:30) 0 0 0 0 0
08-01-2020 6.5 (14:00) 0.6 (00:00) 3.6 4.72 (08:30) 2.5 (10:10) 0 0 0 0 0
07-01-2020 3 (16:00) 2.3 (00:00) 2.6 3.61 (12:40) 1.67 (10:50) 0 0 0 0 0
06-01-2020 3.5 (00:00) -0.1 (00:00) 1.7 2.78 (12:10) 1.39 (13:40) 0 0 0 0 0
05-01-2020 5.1 (15:20) 2.8 (00:00) 3.9 3.61 (11:00) 1.67 (11:00) 0 0 0 0 0
04-01-2020 2.8 (17:00) 1 (00:00) 1.9 3.33 (02:10) 1.94 (02:10) 0 0 0 0 0
03-01-2020 2.8 (00:00) 1.2 (00:00) 2 4.72 (10:20) 2.78 (10:30) 0 0 0 0 0
02-01-2020 3.3 (00:00) 1.7 (00:00) 2.5 3.06 (23:10) 1.67 (01:40) 0 0 0 0 0
01-01-2020 3.8 (00:00) 3.2 (00:00) 3.5 3.89 (11:10) 2.5 (11:30) 0 0 0 0 0
31-12-2019 5.1 (15:00) 3.7 (00:00) 4.4 3.06 (16:20) 1.94 (23:00) 0 0 0 0 0
30-12-2019 5.8 (14:00) 4.1 (00:00) 5 3.61 (20:20) 2.5 (21:40) 0.2 0.2 0 0 0
29-12-2019 5.3 (23:00) 2.7 (00:00) 4 2.5 (00:50) 1.67 (00:50) 0 0 0 0 0
28-12-2019 5.1 (16:10) 3.1 (00:00) 4.1 3.06 (09:30) 1.67 (08:50) 0 0 0 0 0
27-12-2019 6.8 (00:00) 4.6 (00:00) 5.7 3.89 (15:50) 1.67 (01:20) 0 0 0 0 0
26-12-2019 8.3 (15:40) 5.5 (00:00) 6.9 2.5 (17:00) 1.67 (02:10) 0.2 0.2 0 0 0

Gráficas

Temp. máximas Temp. mínimas Temp. medias Precipitaciones Rachas de viento máximas Velocidades máximas media en intervalos de 10 minutos

Datos horarios

Fecha y hora oficial Temperatura (ºC) Velocidad del viento (km/h) Dirección del viento Racha (km/h) Dirección de racha Precipitación (mm) Presión (hPa) Tendencia (hPa) Humedad (%)
2020-01-24 23:00:00 6.4 3 Sur 6 Sur 0 -- -- 98
2020-01-24 22:00:00 5.6 4 Sudeste 7 Sudeste 0 -- -- 97
2020-01-24 21:00:00 5.2 4 Sudeste 5 Sudeste 0 -- -- 94
2020-01-24 20:00:00 6.2 4 Sur 6 Sudeste 0 -- -- 93
2020-01-24 19:00:00 7.6 3 Oeste 8 Oeste 0 -- -- 90
2020-01-24 18:00:00 9.7 4 Oeste 8 Sudoeste 0 -- -- 86
2020-01-24 17:00:00 11.5 4 Oeste 6 Oeste 0 -- -- 79
2020-01-24 16:00:00 12.4 4 Noroeste 9 Oeste 0 -- -- 75
2020-01-24 15:00:00 12.2 4 Noroeste 8 Noroeste 0 -- -- 72
2020-01-24 14:00:00 11.2 4 Norte 10 Norte 0 -- -- 81
2020-01-24 13:00:00 10.5 4 Noroeste 9 Oeste 0 -- -- 86
2020-01-24 12:00:00 9.1 3 Noroeste 6 Noroeste 0 -- -- 95
2020-01-24 11:00:00 6.2 0 Calma 5 Norte 0 -- -- 100
2020-01-24 10:00:00 4.5 2 Sudeste 5 Sudeste 0 -- -- 100
2020-01-24 09:00:00 2.9 3 Sudeste 8 Sudoeste 0 -- -- 100
2020-01-24 08:00:00 2.7 5 Sudeste 7 Sudoeste 0 -- -- 99
2020-01-24 07:00:00 2.9 2 Sudoeste 5 Oeste 0 -- -- 98
2020-01-24 06:00:00 3.5 0 Calma 6 Noroeste 0 -- -- 97
2020-01-24 05:00:00 4.5 4 Noroeste 7 Noroeste 0 -- -- 96
2020-01-24 04:00:00 5.9 5 Sudeste 8 Sudoeste 0 -- -- 95
2020-01-24 03:00:00 6.4 4 Este 8 Sudeste 0 -- -- 97
2020-01-24 02:00:00 6.4 3 Sudeste 10 Este 0 -- -- 97
2020-01-24 01:00:00 6.1 0 Calma 8 Sudeste 0 -- -- 97
2020-01-24 00:00:00 5.9 4 Sudeste 12 Este 0 -- -- 98
2020-01-23 23:00:00 5.6 5 Sudeste 8 Este 0 -- -- 98
2020-01-23 22:00:00 5.3 3 Sudeste 6 Sudeste 0 -- -- 97
2020-01-23 21:00:00 5.3 3 Este 5 Sudeste 0 -- -- 96
2020-01-23 20:00:00 6 2 Sudeste 4 Sudeste 0 -- -- 94
2020-01-23 19:00:00 7.1 3 Este 7 Este 0 -- -- 91
2020-01-23 18:00:00 8.4 3 Nordeste 14 Nordeste 0 -- -- 85
2020-01-23 17:00:00 9.3 7 Nordeste 14 Nordeste 0 -- -- 83
2020-01-23 16:00:00 9.4 9 Nordeste 16 Nordeste 0 -- -- 82
2020-01-23 15:00:00 9.1 8 Este 14 Este 0 -- -- 84
2020-01-23 14:00:00 9.4 8 Nordeste 14 Nordeste 0 -- -- 88
2020-01-23 13:00:00 8.6 5 Sudeste 8 Sur 0.2 -- -- 99
2020-01-23 12:00:00 7.2 3 Sudoeste 9 Sudoeste 0.2 -- -- 100
2020-01-23 11:00:00 6.5 5 Sudoeste 14 Sudoeste 1.4 -- -- 100
2020-01-23 10:00:00 6.1 9 Oeste 16 Oeste 0.4 -- -- 100
2020-01-23 09:00:00 6 6 Oeste 18 Oeste 0 -- -- 100
2020-01-23 08:00:00 6.2 8 Oeste 14 Oeste 0 -- -- 100
2020-01-23 07:00:00 6.1 2 Sur 13 Sudoeste 0 -- -- 100
2020-01-23 06:00:00 6.1 7 Sudoeste 18 Sudoeste 0.8 -- -- 100
2020-01-23 05:00:00 6.1 10 Sudoeste 30 Sudoeste 3.2 -- -- 100
2020-01-23 04:00:00 6.1 14 Sudoeste 25 Sudoeste 2.8 -- -- 100
2020-01-23 03:00:00 6.2 8 Sudoeste 13 Oeste 2 -- -- 100
2020-01-23 02:00:00 6.4 8 Sur 13 Sur 1 -- -- 100
2020-01-23 01:00:00 6.5 0 Calma 8 Noroeste 1.4 -- -- 99
2020-01-23 00:00:00 6.6 3 Oeste 14 Oeste 1.8 -- -- 99
2020-01-22 23:00:00 6.8 8 Oeste 15 Noroeste 3 -- -- 99
2020-01-22 22:00:00 7 9 Noroeste 21 Oeste 8.6 -- -- 99
2020-01-22 21:00:00 7.2 10 Oeste 22 Oeste 8.2 -- -- 98
2020-01-22 20:00:00 7.5 7 Oeste 20 Oeste 1.4 -- -- 99
2020-01-22 19:00:00 7.4 12 Oeste 43 Oeste 1.6 -- -- 98
2020-01-22 18:00:00 7.6 9 Noroeste 30 Noroeste 1.6 -- -- 98
2020-01-22 17:00:00 7.7 8 Noroeste 18 Sudoeste 2.2 -- -- 97
2020-01-22 16:00:00 8 4 Oeste 19 Oeste 1.6 -- -- 96
2020-01-22 15:00:00 7.9 15 Oeste 23 Oeste 0 -- -- 94
2020-01-22 14:00:00 8.9 8 Oeste 17 Oeste 0 -- -- 90
2020-01-22 13:00:00 10.1 8 Oeste 14 Oeste 0 -- -- 85
2020-01-22 12:00:00 9.6 4 Oeste 11 Noroeste 0 -- -- 88
2020-01-22 11:00:00 8.9 5 Noroeste 9 Oeste 0 -- -- 89
2020-01-22 10:00:00 7.5 2 Sudeste 6 Sudeste 0 -- -- 92
2020-01-22 09:00:00 6.6 5 Sudeste 11 Este 0 -- -- 90
2020-01-22 08:00:00 6.9 5 Nordeste 14 Este 0 -- -- 89
2020-01-22 07:00:00 6.7 8 Este 16 Este 0 -- -- 90
2020-01-22 06:00:00 6.8 8 Este 22 Nordeste 0 -- -- 89
2020-01-22 05:00:00 6.9 8 Este 34 Este 0 -- -- 87
2020-01-22 04:00:00 7.2 13 Este 31 Este 0 -- -- 88
2020-01-22 03:00:00 7.2 8 Este 24 Este 0 -- -- 91
2020-01-22 02:00:00 7.4 12 Nordeste 24 Este 0.2 -- -- 92
2020-01-22 01:00:00 7 9 Nordeste 23 Este 3 -- -- 97
2020-01-22 00:00:00 6.7 7 Este 22 Sur 6.6 -- -- 97
2020-01-21 23:00:00 6.5 20 Sudeste 50 Sur 9 -- -- 93
2020-01-21 22:00:00 9.8 17 Este 56 Este 2 -- -- 89
2020-01-21 21:00:00 10.7 33 Este 54 Este 0 -- -- 80
2020-01-21 20:00:00 10.4 20 Este 44 Este 0 -- -- 79
2020-01-21 19:00:00 10.1 21 Este 55 Nordeste 0 -- -- 80
2020-01-21 18:00:00 10 24 Este 61 Este 0 -- -- 80
2020-01-21 17:00:00 10.5 38 Este 72 Este 0 -- -- 78
2020-01-21 16:00:00 10.1 40 Este 76 Este 0 -- -- 79
2020-01-21 15:00:00 9.6 31 Este 68 Este 0 -- -- 82
2020-01-21 14:00:00 9.7 30 Este 58 Este 0 -- -- 81
2020-01-21 13:00:00 9.4 23 Este 63 Este 0 -- -- 81
2020-01-21 12:00:00 8.5 36 Este 77 Este 0.4 -- -- 84
2020-01-21 11:00:00 8.1 34 Este 66 Este 0.4 -- -- 83
2020-01-21 10:00:00 7.1 22 Este 53 Este 1.6 -- -- 88
2020-01-21 09:00:00 7.4 29 Este 65 Este 0.6 -- -- 81
2020-01-21 08:00:00 7 27 Este 63 Este 0 -- -- 81
2020-01-21 07:00:00 7.4 31 Este 60 Este 0 -- -- 76
2020-01-21 06:00:00 7 27 Este 55 Este 0 -- -- 77
2020-01-21 05:00:00 7 32 Este 61 Este 0 -- -- 78
2020-01-21 04:00:00 7.1 36 Este 65 Este 0 -- -- 76
2020-01-21 03:00:00 7.5 33 Este 69 Este 0.2 -- -- 73
2020-01-21 02:00:00 8.5 23 Este 46 Este 0 -- -- 66
2020-01-21 01:00:00 7.8 12 Este 41 Este 0 -- -- 67
2020-01-21 00:00:00 7.8 21 Este 36 Este 0 -- -- 67
2020-01-20 23:00:00 7.7 12 Este 34 Nordeste 0 -- -- 68
2020-01-20 22:00:00 8 16 Este 46 Este 0 -- -- 65
2020-01-20 21:00:00 8.3 20 Este 39 Este 0 -- -- 62
2020-01-20 20:00:00 8.3 17 Este 37 Este 0 -- -- 60
2020-01-20 19:00:00 8.5 16 Este 36 Este 0 -- -- 60
2020-01-20 18:00:00 8.9 22 Este 45 Este 0 -- -- 58
2020-01-20 17:00:00 9 15 Este 39 Este 0 -- -- 57
2020-01-20 16:00:00 9.4 20 Este 41 Este 0 -- -- 57
2020-01-20 15:00:00 8.9 19 Este 33 Este 0 -- -- 62
2020-01-20 14:00:00 3.8 3 Noroeste 12 Oeste 0 -- -- 84
2020-01-20 13:00:00 3.6 5 Noroeste 11 Sudoeste 0 -- -- 85
2020-01-20 12:00:00 3.1 7 Oeste 13 Sudoeste 0 -- -- 84
2020-01-20 11:00:00 2.7 6 Sudoeste 14 Sudoeste 0 -- -- 84
2020-01-20 10:00:00 2.4 5 Oeste 11 Noroeste 0 -- -- 86
2020-01-20 09:00:00 2.1 3 Noroeste 12 Noroeste 0 -- -- 87
2020-01-20 08:00:00 2 2 Nordeste 21 Oeste 0 -- -- 85
2020-01-20 07:00:00 2.3 4 Noroeste 22 Oeste 0 -- -- 82
2020-01-20 06:00:00 2.6 12 Oeste 26 Oeste 0 -- -- 81
2020-01-20 05:00:00 2.7 11 Oeste 18 Sudoeste 0 -- -- 91
2020-01-20 04:00:00 2.9 7 Sudoeste 15 Sudoeste 0 -- -- 96
2020-01-20 03:00:00 3.6 9 Oeste 14 Oeste 0 -- -- 88
2020-01-20 02:00:00 3.7 4 Oeste 10 Sudoeste 0 -- -- 71
2020-01-20 01:00:00 3.5 5 Sudoeste 10 Sudoeste 0 -- -- 70
2020-01-20 00:00:00 3.7 4 Norte 8 Norte 0 -- -- 66
2020-01-19 23:00:00 4.3 3 Noroeste 10 Nordeste 0 -- -- 68
2020-01-19 22:00:00 5.1 5 Este 14 Este 0 -- -- 61
2020-01-19 21:00:00 4.1 3 Sudeste 7 Nordeste 0 -- -- 97
2020-01-19 20:00:00 4.8 0 Calma 3 Noroeste 0 -- -- 96
2020-01-19 19:00:00 6.4 0 Calma 3 Sur 0 -- -- 92
2020-01-19 18:00:00 8.4 0 Calma 5 Oeste 0 -- -- 89
2020-01-19 17:00:00 9.3 2 Sur 8 Sudoeste 0 -- -- 85
2020-01-19 16:00:00 9.2 4 Oeste 13 Noroeste 0 -- -- 84
2020-01-19 15:00:00 8.8 9 Oeste 13 Oeste 0 -- -- 87
2020-01-19 14:00:00 7.8 6 Oeste 10 Oeste 0 -- -- 93
2020-01-19 13:00:00 7.3 6 Oeste 10 Noroeste 0 -- -- 96
2020-01-19 12:00:00 7.3 4 Noroeste 12 Oeste 0 -- -- 97
2020-01-19 11:00:00 6.8 5 Oeste 8 Oeste 0 -- -- 98
2020-01-19 10:00:00 6.3 2 Noroeste 7 Sur 0 -- -- 98
2020-01-19 09:00:00 6 5 Sudeste 10 Sudoeste 0.2 -- -- 98
2020-01-19 08:00:00 6 5 Sudoeste 9 Sudoeste 0 -- -- 98
2020-01-19 07:00:00 6.1 4 Sudoeste 13 Sudoeste 0 -- -- 98
2020-01-19 06:00:00 6.3 5 Oeste 18 Sudoeste 0.4 -- -- 97
2020-01-19 05:00:00 6.9 9 Oeste 19 Sudoeste 3.4 -- -- 96
2020-01-19 04:00:00 8 4 Sudoeste 10 Sudoeste 0.2 -- -- 94
2020-01-19 03:00:00 8.4 4 Oeste 19 Este 0 -- -- 92
2020-01-19 02:00:00 8.4 12 Este 21 Este 0 -- -- 89
2020-01-19 01:00:00 7.9 9 Nordeste 21 Nordeste 0 -- -- 89
2020-01-19 00:00:00 8.1 6 Nordeste 11 Este 0 -- -- 95
2020-01-18 23:00:00 7.6 5 Sudeste 7 Sudeste 0 -- -- 94
2020-01-18 22:00:00 7.7 4 Sudeste 8 Sudeste 1.2 -- -- 91
2020-01-18 21:00:00 8 2 Sur 4 Sudeste 0.2 -- -- 85
2020-01-18 20:00:00 8.5 0 Calma 4 Noroeste 0 -- -- 82
2020-01-18 19:00:00 9.2 0 Calma 4 Este 0 -- -- 72
2020-01-18 18:00:00 10.1 3 Nordeste 9 Este 0 -- -- 64
2020-01-18 17:00:00 10.9 5 Este 10 Este 0 -- -- 60
2020-01-18 16:00:00 11.2 3 Sudeste 6 Nordeste 0 -- -- 59
2020-01-18 15:00:00 11.1 4 Nordeste 10 Norte 0 -- -- 60
2020-01-18 14:00:00 10.1 5 Norte 9 Norte 0 -- -- 63
2020-01-18 13:00:00 9 3 Noroeste 8 Norte 0 -- -- 72
2020-01-18 12:00:00 7.6 3 Este 6 Nordeste 0 -- -- 80
2020-01-18 11:00:00 4.7 2 Este 8 Nordeste 0 -- -- 92
2020-01-18 10:00:00 2.8 3 Sudeste 8 Sur 0 -- -- 95
2020-01-18 09:00:00 1.7 4 Sur 7 Sur 0 -- -- 95
2020-01-18 08:00:00 1.6 3 Sur 4 Sur 0 -- -- 94
2020-01-18 07:00:00 1.6 3 Sudeste 6 Norte 0 -- -- 93
2020-01-18 06:00:00 1.8 0 Calma 4 Sudoeste 0 -- -- 93
2020-01-18 05:00:00 1.5 2 Sur 5 Oeste 0 -- -- 90
2020-01-18 04:00:00 2.9 3 Norte 12 Sudoeste 0 -- -- 84
2020-01-18 03:00:00 3.6 6 Sudoeste 18 Sudoeste 0 -- -- 81
2020-01-18 02:00:00 4.3 12 Sudoeste 21 Sudoeste 0 -- -- 80
2020-01-18 01:00:00 4.5 11 Sudoeste 23 Sudoeste 0 -- -- 80
2020-01-18 00:00:00 5 13 Oeste 20 Oeste 0 -- -- 80
2020-01-17 23:00:00 5.8 15 Oeste 24 Oeste 0 -- -- 78
2020-01-17 22:00:00 6.5 15 Oeste 25 Oeste 0 -- -- 74
2020-01-17 21:00:00 7.3 15 Oeste 31 Oeste 0 -- -- 74
2020-01-17 20:00:00 8.2 18 Oeste 30 Oeste 0 -- -- 73
2020-01-17 19:00:00 9.2 19 Oeste 39 Oeste 0 -- -- 70
2020-01-17 18:00:00 10.6 18 Oeste 34 Oeste 0 -- -- 65
2020-01-17 17:00:00 11.9 18 Oeste 44 Oeste 0 -- -- 62
2020-01-17 16:00:00 14 17 Noroeste 36 Oeste 0 -- -- 62
2020-01-17 15:00:00 13.3 17 Oeste 27 Noroeste 0 -- -- 73
2020-01-17 14:00:00 11.9 15 Oeste 26 Oeste 0 -- -- 77
2020-01-17 13:00:00 9.4 13 Oeste 20 Oeste 0 -- -- 100
2020-01-17 12:00:00 5.7 4 Sudoeste 9 Sudoeste 0 -- -- 100
2020-01-17 11:00:00 3.9 3 Oeste 7 Oeste 0 -- -- 100
2020-01-17 10:00:00 2.5 3 Noroeste 8 Norte 0 -- -- 100
2020-01-17 09:00:00 1.8 5 Noroeste 12 Noroeste 0 -- -- 100
2020-01-17 08:00:00 3.2 4 Sudeste 10 Sudoeste 0 -- -- 100
2020-01-17 07:00:00 2.8 9 Sur 13 Sudeste 0 -- -- 100
2020-01-17 06:00:00 2.2 3 Noroeste 15 Oeste 0 -- -- 100
2020-01-17 05:00:00 1.2 0 Calma 5 Oeste 0 -- -- 100
2020-01-17 04:00:00 1.5 2 Sudeste 5 Sudeste 0 -- -- 100
2020-01-17 03:00:00 1.6 2 Sur 6 Noroeste 0 -- -- 100
2020-01-17 02:00:00 2.1 0 Calma 7 Sudeste 0 -- -- 100
2020-01-17 01:00:00 2.3 4 Sur 7 Sudeste 0 -- -- 99
2020-01-17 00:00:00 2 2 Sudeste 5 Sudeste 0 -- -- 96
2020-01-16 23:00:00 3.2 0 Calma 5 Sudeste 0 -- -- 94
2020-01-16 22:00:00 5 3 Sur 8 Sur 0 -- -- 96
2020-01-16 21:00:00 5 4 Sur 7 Sudeste 0 -- -- 95
2020-01-16 20:00:00 5.1 3 Sur 4 Sur 0 -- -- 93
2020-01-16 19:00:00 5.8 3 Sudeste 6 Este 0 -- -- 92
2020-01-16 18:00:00 7.7 2 Norte 4 Norte 0 -- -- 86
2020-01-16 17:00:00 9.7 0 Calma 6 Noroeste 0 -- -- 82
2020-01-16 16:00:00 10.5 3 Norte 5 Noroeste 0 -- -- 80
2020-01-16 15:00:00 9.1 0 Calma 6 Norte 0 -- -- 87
2020-01-16 14:00:00 6.4 2 Oeste 5 Oeste 0 -- -- 100
2020-01-16 13:00:00 3.4 3 Oeste 6 Oeste 0 -- -- 100
2020-01-16 12:00:00 1.2 2 Norte 8 Noroeste 0 -- -- 100
2020-01-16 11:00:00 -0.9 4 Noroeste 6 Oeste 0 -- -- 100
2020-01-16 10:00:00 -2.1 4 Noroeste 9 Noroeste 0 -- -- 100
2020-01-16 09:00:00 -2.7 0 Calma 4 Sur 0 -- -- 100
2020-01-16 08:00:00 -2.7 0 Calma 3 Nordeste 0 -- -- 100
2020-01-16 07:00:00 -2.4 2 Oeste 5 Norte 0 -- -- 100
2020-01-16 06:00:00 -2.2 2 Noroeste 4 Noroeste 0 -- -- 100
2020-01-16 05:00:00 -2 0 Calma 7 Sur 0 -- -- 100
2020-01-16 04:00:00 -1.6 2 Sudeste 6 Noroeste 0 -- -- 100
2020-01-16 03:00:00 -1.5 4 Noroeste 8 Noroeste 0 -- -- 100
2020-01-16 02:00:00 -1.1 0 Calma 5 Sur 0 -- -- 100
2020-01-16 01:00:00 -0.9 0 Calma 4 Noroeste 0 -- -- 100
2020-01-16 00:00:00 -0.6 2 Norte 5 Norte 0 -- -- 100
2020-01-15 23:00:00 -0.2 0 Calma 5 Norte 0 -- -- 100
2020-01-15 22:00:00 0 3 Oeste 5 Oeste 0 -- -- 100
2020-01-15 21:00:00 0.7 2 Sudoeste 5 Sudeste 0 -- -- 100
2020-01-15 20:00:00 1.3 3 Sudeste 5 Sudeste 0 -- -- 100
2020-01-15 19:00:00 1.4 2 Nordeste 5 Norte 0 -- -- 100
2020-01-15 18:00:00 1.9 3 Este 6 Nordeste 0 -- -- 100
2020-01-15 17:00:00 2.4 3 Sur 8 Oeste 0 -- -- 100
2020-01-15 16:00:00 2.4 4 Sudoeste 12 Oeste 0 -- -- 100
2020-01-15 15:00:00 1.7 3 Sudoeste 10 Sudoeste 0 -- -- 100
2020-01-15 14:00:00 1.4 4 Sudoeste 10 Noroeste 0 -- -- 100
2020-01-15 13:00:00 0.8 3 Oeste 9 Noroeste 0 -- -- 100
2020-01-15 12:00:00 0.3 4 Noroeste 8 Noroeste 0 -- -- 100
2020-01-15 11:00:00 -0.3 0 Calma 5 Sudeste 0 -- -- 100
2020-01-15 10:00:00 -0.8 3 Nordeste 8 Norte 0 -- -- 100
2020-01-15 09:00:00 -0.9 5 Norte 10 Norte 0 -- -- 100
2020-01-15 08:00:00 -1 0 Calma 6 Nordeste 0 -- -- 100
2020-01-15 07:00:00 -0.9 2 Sudoeste 8 Oeste 0 -- -- 100
2020-01-15 06:00:00 -0.8 0 Calma 7 Oeste 0 -- -- 100
2020-01-15 05:00:00 -0.6 2 Noroeste 8 Norte 0 -- -- 100
2020-01-15 04:00:00 -0.5 2 Noroeste 9 Sudeste 0 -- -- 100
2020-01-15 03:00:00 -0.4 3 Sudeste 8 Sudeste 0 -- -- 100
2020-01-15 02:00:00 -0.2 3 Sudoeste 8 Oeste 0 -- -- 100
2020-01-15 01:00:00 0.1 3 Oeste 6 Oeste 0 -- -- 100
2020-01-15 00:00:00 0.1 0 Calma 5 Oeste 0 -- -- 100
2020-01-14 23:00:00 0.2 2 Oeste 6 Sudoeste 0 -- -- 100
2020-01-14 22:00:00 0.5 3 Sur 5 Sur 0 -- -- 100
2020-01-14 21:00:00 0.4 0 Calma 8 Noroeste 0 -- -- 100
2020-01-14 20:00:00 0.1 4 Oeste 8 Oeste 0 -- -- 98
2020-01-14 19:00:00 0.7 2 Oeste 5 Noroeste 0 -- -- 96
2020-01-14 18:00:00 2.3 3 Noroeste 9 Noroeste 0 -- -- 94
2020-01-14 17:00:00 3.9 5 Noroeste 8 Noroeste 0 -- -- 93
2020-01-14 16:00:00 4.6 2 Noroeste 7 Noroeste 0 -- -- 100
2020-01-14 15:00:00 3.3 4 Norte 8 Este 0 -- -- 100
2020-01-14 14:00:00 1.5 3 Nordeste 7 Este 0 -- -- 100
2020-01-14 13:00:00 0.7 3 Nordeste 8 Este 0 -- -- 100
2020-01-14 12:00:00 0 3 Este 7 Norte 0 -- -- 100
2020-01-14 11:00:00 -0.4 4 Norte 9 Norte 0 -- -- 100
2020-01-14 10:00:00 -0.9 5 Sudeste 10 Sudeste 0 -- -- 100
2020-01-14 09:00:00 -0.8 6 Sudeste 10 Sudeste 0 -- -- 100
2020-01-14 08:00:00 -1 2 Oeste 6 Oeste 0 -- -- 100
2020-01-14 07:00:00 -1.1 5 Sudeste 8 Sudeste 0 -- -- 100
2020-01-14 06:00:00 -1.3 0 Calma 6 Norte 0 -- -- 100
2020-01-14 05:00:00 -1.2 3 Norte 7 Norte 0 -- -- 100
2020-01-14 04:00:00 -0.9 3 Sur 8 Oeste 0 -- -- 100
2020-01-14 03:00:00 -0.3 4 Oeste 8 Sudoeste 0 -- -- 100
2020-01-14 02:00:00 -0.1 2 Noroeste 6 Noroeste 0 -- -- 100
2020-01-14 01:00:00 -0.1 3 Este 6 Este 0 -- -- 100
2020-01-14 00:00:00 0.2 4 Norte 11 Norte 0 -- -- 100
2020-01-13 23:00:00 0.2 0 Calma 6 Sudeste 0 -- -- 100
2020-01-13 22:00:00 0.2 3 Este 6 Sudeste 0 -- -- 100
2020-01-13 21:00:00 0.2 3 Norte 10 Noroeste 0 -- -- 100
2020-01-13 20:00:00 0.5 4 Noroeste 8 Noroeste 0 -- -- 100
2020-01-13 19:00:00 0.6 5 Sudoeste 10 Noroeste 0 -- -- 100
2020-01-13 18:00:00 1.2 6 Noroeste 11 Noroeste 0 -- -- 100
2020-01-13 17:00:00 1.2 3 Oeste 8 Noroeste 0 -- -- 100
2020-01-13 16:00:00 1.2 3 Este 8 Noroeste 0 -- -- 100
2020-01-13 15:00:00 1.1 0 Calma 7 Norte 0 -- -- 100
2020-01-13 14:00:00 0.6 3 Nordeste 7 Nordeste 0 -- -- 100
2020-01-13 13:00:00 0 4 Nordeste 9 Este 0 -- -- 100
2020-01-13 12:00:00 -0.6 4 Este 10 Nordeste 0 -- -- 100
2020-01-13 11:00:00 -1.3 6 Sudeste 10 Este 0 -- -- 100
2020-01-13 10:00:00 -1.7 4 Este 10 Sudeste 0 -- -- 100
2020-01-13 09:00:00 -1.9 6 Sudeste 9 Este 0 -- -- 100
2020-01-13 08:00:00 -1.6 6 Sudeste 10 Sudeste 0 -- -- 100
2020-01-13 07:00:00 -1.2 6 Sudeste 10 Sudeste 0 -- -- 100
2020-01-13 06:00:00 -1.1 3 Sudeste 5 Sur 0 -- -- 100
2020-01-13 05:00:00 -1.1 2 Noroeste 7 Oeste 0 -- -- 100
2020-01-13 04:00:00 -1 4 Sudoeste 8 Sudeste 0 -- -- 100
2020-01-13 03:00:00 -0.9 5 Oeste 9 Oeste 0 -- -- 100
2020-01-13 02:00:00 -0.7 6 Sur 10 Sur 0 -- -- 100
2020-01-13 01:00:00 -0.6 2 Sudeste 6 Sudoeste 0 -- -- 100
2020-01-13 00:00:00 -0.5 4 Sur 7 Sudeste 0 -- -- 100
2020-01-12 23:00:00 -0.2 4 Sur 10 Sudoeste 0 -- -- 100
2020-01-12 22:00:00 0.3 0 Calma 8 Oeste 0 -- -- 100
2020-01-12 21:00:00 0.4 5 Oeste 10 Oeste 0 -- -- 100
2020-01-12 20:00:00 0.8 5 Sudoeste 10 Oeste 0 -- -- 100
2020-01-12 19:00:00 1.2 4 Oeste 7 Oeste 0 -- -- 100
2020-01-12 18:00:00 1.5 2 Nordeste 7 Sudeste 0 -- -- 100
2020-01-12 17:00:00 1.9 3 Sudeste 5 Sur 0 -- -- 100
2020-01-12 16:00:00 2.1 3 Noroeste 6 Noroeste 0 -- -- 100
2020-01-12 15:00:00 2 2 Noroeste 9 Oeste 0 -- -- 100
2020-01-12 14:00:00 1.3 4 Sur 8 Sur 0 -- -- 100
2020-01-12 13:00:00 0.5 3 Sudoeste 8 Oeste 0 -- -- 100
2020-01-12 12:00:00 -0.7 4 Sudoeste 6 Sur 0 -- -- 100
2020-01-12 11:00:00 -1.8 3 Sur 6 Sur 0 -- -- 100
2020-01-12 10:00:00 -2.9 4 Sur 6 Sur 0 -- -- 100
2020-01-12 09:00:00 -2.6 2 Sudoeste 6 Sur 0 -- -- 100
2020-01-12 08:00:00 -2.5 2 Sur 8 Noroeste 0 -- -- 100
2020-01-12 07:00:00 -2.5 5 Noroeste 8 Noroeste 0 -- -- 100
2020-01-12 06:00:00 -2.9 3 Sur 4 Sur 0 -- -- 99
2020-01-12 05:00:00 -3 2 Sur 4 Sudeste 0 -- -- 98
2020-01-12 04:00:00 -2.7 3 Sur 4 Sur 0 -- -- 98
2020-01-12 03:00:00 -2.5 4 Sudeste 5 Sudeste 0 -- -- 98
2020-01-12 02:00:00 -1.8 3 Sur 5 Sur 0 -- -- 98
2020-01-12 01:00:00 -1.2 0 Calma 3 Sudoeste 0 -- -- 98
2020-01-12 00:00:00 -0.4 3 Sur 4 Sur 0 -- -- 98
2020-01-11 23:00:00 0.1 2 Sur 5 Sudeste 0 -- -- 97
2020-01-11 22:00:00 0.1 3 Sur 5 Sudeste 0 -- -- 95
2020-01-11 21:00:00 1.3 3 Sudeste 6 Sudeste 0 -- -- 95
2020-01-11 20:00:00 2.2 4 Sudeste 6 Sudeste 0 -- -- 92
2020-01-11 19:00:00 3.7 4 Este 12 Este 0 -- -- 90
2020-01-11 18:00:00 4.9 3 Nordeste 11 Norte 0 -- -- 87
2020-01-11 17:00:00 6.9 6 Nordeste 11 Norte 0 -- -- 82
2020-01-11 16:00:00 8.6 3 Oeste 12 Noroeste 0 -- -- 72
2020-01-11 15:00:00 8.2 6 Noroeste 15 Oeste 0 -- -- 75
2020-01-11 14:00:00 7.3 7 Noroeste 14 Oeste 0 -- -- 79
2020-01-11 13:00:00 6.4 8 Oeste 18 Oeste 0 -- -- 85
2020-01-11 12:00:00 4.8 6 Noroeste 17 Oeste 0 -- -- 96
2020-01-11 11:00:00 3.9 8 Oeste 14 Oeste 0 -- -- 100
2020-01-11 10:00:00 2.5 5 Oeste 14 Oeste 0 -- -- 100
2020-01-11 09:00:00 1.2 5 Oeste 8 Oeste 0 -- -- 100
2020-01-11 08:00:00 1.9 4 Oeste 10 Oeste 0 -- -- 100
2020-01-11 07:00:00 2.5 5 Oeste 9 Oeste 0 -- -- 100
2020-01-11 06:00:00 3.3 5 Oeste 10 Oeste 0 -- -- 100
2020-01-11 05:00:00 3.2 6 Oeste 13 Oeste 0 -- -- 100
2020-01-11 04:00:00 1.6 3 Sudeste 7 Sudeste 0 -- -- 100
2020-01-11 03:00:00 2.9 3 Sudeste 7 Oeste 0 -- -- 100
2020-01-11 02:00:00 2.7 2 Sudoeste 5 Oeste 0 -- -- 100
2020-01-11 01:00:00 1.3 3 Sur 9 Sudeste 0 -- -- 100
2020-01-11 00:00:00 1.9 5 Sur 7 Sudeste 0 -- -- 100
2020-01-10 23:00:00 2.7 4 Sudeste 12 Sudeste 0 -- -- 100
2020-01-10 22:00:00 3.2 6 Sudeste 10 Sudeste 0 -- -- 100
2020-01-10 21:00:00 2.3 4 Sur 6 Sur 0 -- -- 100
2020-01-10 20:00:00 3 2 Sudeste 5 Norte 0 -- -- 99
2020-01-10 19:00:00 3.9 0 Calma 4 Noroeste 0 -- -- 98
2020-01-10 18:00:00 5.4 3 Sudeste 11 Sudeste 0 -- -- 97
2020-01-10 17:00:00 6.5 8 Sudeste 12 Sudeste 0 -- -- 96
2020-01-10 16:00:00 6.9 4 Oeste 14 Oeste 0 -- -- 98
2020-01-10 15:00:00 6.8 6 Oeste 13 Oeste 0 -- -- 100
2020-01-10 14:00:00 6.4 5 Oeste 9 Noroeste 0 -- -- 100
2020-01-10 13:00:00 5.7 4 Sudoeste 7 Sur 0 -- -- 100
2020-01-10 12:00:00 5.1 0 Calma 8 Noroeste 0 -- -- 100
2020-01-10 11:00:00 4.8 3 Noroeste 9 Sur 0 -- -- 100
2020-01-10 10:00:00 4.6 7 Sur 15 Sudeste 0 -- -- 100
2020-01-10 09:00:00 3.9 3 Sur 8 Norte 0 -- -- 100
2020-01-10 08:00:00 3.9 3 Norte 5 Norte 0 -- -- 100
2020-01-10 07:00:00 3.9 3 Noroeste 10 Oeste 0 -- -- 100
2020-01-10 06:00:00 4 5 Oeste 16 Sudoeste 0.2 -- -- 100
2020-01-10 05:00:00 4.3 9 Oeste 19 Oeste 0 -- -- 100
2020-01-10 04:00:00 4.4 7 Oeste 14 Oeste 0 -- -- 100
2020-01-10 03:00:00 4.3 5 Oeste 11 Oeste 0 -- -- 100
2020-01-10 02:00:00 3.9 5 Sudoeste 9 Sudoeste 0 -- -- 100
2020-01-10 01:00:00 3.6 3 Sur 9 Oeste 0 -- -- 100
2020-01-10 00:00:00 3.3 3 Oeste 6 Oeste 0 -- -- 100
2020-01-09 23:00:00 3.4 4 Sur 7 Sur 0 -- -- 100
2020-01-09 22:00:00 3.4 3 Noroeste 10 Noroeste 0 -- -- 100
2020-01-09 21:00:00 3.5 5 Norte 9 Norte 0 -- -- 100
2020-01-09 20:00:00 3.3 6 Sudeste 18 Sudeste 0 -- -- 100
2020-01-09 19:00:00 3.3 2 Sur 12 Noroeste 0 -- -- 100
2020-01-09 18:00:00 3.6 2 Norte 8 Sudeste 0 -- -- 100
2020-01-09 17:00:00 3.9 4 Sudeste 8 Sudeste 0 -- -- 100
2020-01-09 16:00:00 3.8 3 Norte 8 Sudoeste 0 -- -- 100
2020-01-09 15:00:00 3.7 4 Oeste 10 Oeste 0 -- -- 100
2020-01-09 14:00:00 3.7 4 Noroeste 9 Noroeste 0 -- -- 100
2020-01-09 13:00:00 3 3 Noroeste 9 Noroeste 0 -- -- 100
2020-01-09 12:00:00 2.6 3 Norte 6 Noroeste 0 -- -- 100
2020-01-09 11:00:00 1.7 2 Este 5 Norte 0 -- -- 100
2020-01-09 10:00:00 1.4 2 Nordeste 6 Nordeste 0 -- -- 100
2020-01-09 09:00:00 1.4 2 Sudeste 9 Sudeste 0 -- -- 100
2020-01-09 08:00:00 1.6 3 Sudeste 6 Norte 0 -- -- 100
2020-01-09 07:00:00 1.7 4 Norte 6 Norte 0 -- -- 100
2020-01-09 06:00:00 1.5 3 Sudeste 6 Sudeste 0 -- -- 100
2020-01-09 05:00:00 2.1 3 Este 6 Norte 0 -- -- 100
2020-01-09 04:00:00 2.2 0 Calma 5 Sudeste 0 -- -- 100
2020-01-09 03:00:00 2.4 3 Sudeste 5 Norte 0 -- -- 100
2020-01-09 02:00:00 2.4 2 Nordeste 6 Sudeste 0 -- -- 100
2020-01-09 01:00:00 2.3 3 Sudeste 8 Sudeste 0 -- -- 100
2020-01-09 00:00:00 2.8 4 Sudeste 6 Este 0 -- -- 100
2020-01-08 23:00:00 2.9 0 Calma 6 Sur 0 -- -- 100
2020-01-08 22:00:00 3.1 0 Calma 6 Sudoeste 0 -- -- 100
2020-01-08 21:00:00 3.2 5 Oeste 9 Oeste 0 -- -- 100
2020-01-08 20:00:00 3.5 5 Oeste 9 Oeste 0 -- -- 100
2020-01-08 19:00:00 3.4 0 Calma 5 Sur 0 -- -- 100
2020-01-08 18:00:00 3.9 3 Sudoeste 6 Oeste 0 -- -- 98
2020-01-08 17:00:00 4.5 2 Oeste 7 Oeste 0 -- -- 97
2020-01-08 16:00:00 4.9 3 Oeste 13 Oeste 0 -- -- 96
2020-01-08 15:00:00 5.5 9 Oeste 15 Oeste 0 -- -- 91
2020-01-08 14:00:00 6.5 7 Oeste 13 Oeste 0 -- -- 88
2020-01-08 13:00:00 4.7 6 Oeste 11 Noroeste 0 -- -- 100
2020-01-08 12:00:00 2.3 3 Oeste 6 Este 0 -- -- 100
2020-01-08 11:00:00 1.1 3 Este 14 Sudeste 0 -- -- 100
2020-01-08 10:00:00 0.6 8 Este 15 Este 0 -- -- 100
2020-01-08 09:00:00 0.7 5 Este 17 Este 0 -- -- 100
2020-01-08 08:00:00 0.9 6 Este 14 Este 0 -- -- 100
2020-01-08 07:00:00 1.3 6 Este 10 Este 0 -- -- 100
2020-01-08 06:00:00 1.6 4 Sudeste 8 Nordeste 0 -- -- 100
2020-01-08 05:00:00 1.8 4 Nordeste 8 Este 0 -- -- 100
2020-01-08 04:00:00 2.2 3 Este 6 Sudeste 0 -- -- 100
2020-01-08 03:00:00 2.2 0 Calma 7 Nordeste 0 -- -- 100
2020-01-08 02:00:00 2.1 3 Nordeste 8 Noroeste 0 -- -- 100
2020-01-08 01:00:00 2.2 0 Calma 8 Norte 0 -- -- 100
2020-01-08 00:00:00 2.3 5 Norte 8 Noroeste 0 -- -- 100
2020-01-07 23:00:00 2.4 2 Noroeste 6 Oeste 0 -- -- 100
2020-01-07 22:00:00 2.3 3 Norte 8 Nordeste 0 -- -- 100
2020-01-07 21:00:00 2.4 3 Sudeste 9 Sudeste 0 -- -- 100
2020-01-07 20:00:00 2.6 5 Este 10 Este 0 -- -- 100
2020-01-07 19:00:00 2.7 0 Calma 4 Sudeste 0 -- -- 100
2020-01-07 18:00:00 2.6 0 Calma 8 Noroeste 0 -- -- 100
2020-01-07 17:00:00 2.9 3 Norte 9 Noroeste 0 -- -- 100
2020-01-07 16:00:00 3 3 Noroeste 11 Oeste 0 -- -- 100
2020-01-07 15:00:00 2.9 3 Sudoeste 6 Sudoeste 0 -- -- 100
2020-01-07 14:00:00 2.9 2 Sudoeste 10 Oeste 0 -- -- 100
2020-01-07 13:00:00 2.9 5 Oeste 13 Oeste 0 -- -- 100
2020-01-07 12:00:00 2.7 2 Oeste 12 Oeste 0 -- -- 100
2020-01-07 11:00:00 2.6 3 Noroeste 12 Oeste 0 -- -- 100
2020-01-07 10:00:00 2.6 3 Oeste 8 Noroeste 0 -- -- 100
2020-01-07 09:00:00 2.4 3 Nordeste 4 Nordeste 0 -- -- 100
2020-01-07 08:00:00 2.3 0 Calma 5 Sudoeste 0 -- -- 100
2020-01-07 07:00:00 2.5 4 Oeste 9 Noroeste 0 -- -- 100
2020-01-07 06:00:00 2.4 2 Sudeste 5 Sudeste 0 -- -- 100
2020-01-07 05:00:00 2.5 4 Norte 7 Norte 0 -- -- 100
2020-01-07 04:00:00 2.6 2 Nordeste 7 Norte 0 -- -- 100
2020-01-07 03:00:00 2.7 0 Calma 5 Este 0 -- -- 100
2020-01-07 02:00:00 2.7 0 Calma 6 Sudeste 0 -- -- 100
2020-01-07 01:00:00 2.6 3 Este 6 Sudeste 0 -- -- 100
2020-01-07 00:00:00 2.5 4 Norte 7 Norte 0 -- -- 100
2020-01-06 23:00:00 2.5 3 Oeste 9 Sudoeste 0 -- -- 100
2020-01-06 22:00:00 2.6 2 Sudoeste 7 Oeste 0 -- -- 100
2020-01-06 21:00:00 2.6 4 Noroeste 9 Norte 0 -- -- 100
2020-01-06 20:00:00 2.6 0 Calma 6 Sudeste 0 -- -- 100
2020-01-06 19:00:00 2.4 4 Sudeste 7 Este 0 -- -- 100
2020-01-06 18:00:00 2.4 4 Nordeste 7 Norte 0 -- -- 100
2020-01-06 17:00:00 2.2 2 Noroeste 5 Oeste 0 -- -- 100
2020-01-06 16:00:00 2.3 0 Calma 9 Oeste 0 -- -- 100
2020-01-06 15:00:00 2.2 3 Noroeste 9 Noroeste 0 -- -- 100
2020-01-06 14:00:00 2.1 4 Noroeste 9 Oeste 0 -- -- 100
2020-01-06 13:00:00 1.8 4 Oeste 10 Sudoeste 0 -- -- 100
2020-01-06 12:00:00 1.2 3 Noroeste 6 Oeste 0 -- -- 100
2020-01-06 11:00:00 0.4 2 Sudoeste 8 Sudoeste 0 -- -- 100
2020-01-06 10:00:00 0.1 4 Noroeste 8 Noroeste 0 -- -- 100